Time;durP1;ratioP1;P1;durP2;ratioP2;P2;SDS_P1;SDS_P2;PMS_P1;PMS_P2;Temp;Humidity;BMP_temperature;BMP_pressure;BME280_temperature;BME280_humidity;BME280_pressure;Samples;Min_cycle;Max_cycle;Signal;HPM_P1;HPM_P2
2021/04/02 00:02:18;;;;;;;0.98;0.80;;;8.30;98.10;;;;;;4985395;28;20026;-74
2021/04/02 00:04:59;;;;;;;1.88;0.85;;;8.30;98.10;;;;;;4992150;28;20529;-75
2021/04/02 00:07:25;;;;;;;0.88;0.70;;;8.40;97.70;;;;;;4986309;28;20117;-74
2021/04/02 00:09:50;;;;;;;1.67;0.73;;;8.40;97.70;;;;;;4989140;28;20117;-74
2021/04/02 00:12:16;;;;;;;0.93;0.60;;;8.40;97.60;;;;;;4986360;28;20025;-75
2021/04/02 00:14:41;;;;;;;1.02;0.93;;;8.30;97.50;;;;;;4988933;28;20653;-75
2021/04/02 00:17:07;;;;;;;1.92;0.73;;;8.40;97.20;;;;;;4985485;28;20668;-75
2021/04/02 00:19:32;;;;;;;1.58;0.90;;;8.30;97.20;;;;;;4990980;28;20469;-75
2021/04/02 00:21:58;;;;;;;0.63;0.63;;;8.20;97.10;;;;;;4990410;28;20030;-74
2021/04/02 00:24:23;;;;;;;2.55;0.80;;;8.20;96.10;;;;;;4990709;28;20071;-75
2021/04/02 00:26:49;;;;;;;1.45;1.00;;;8.20;96.10;;;;;;4992410;28;20030;-75
2021/04/02 00:29:15;;;;;;;1.17;0.70;;;8.10;96.10;;;;;;4963753;28;20023;-75
2021/04/02 00:31:40;;;;;;;2.20;0.90;;;8.10;95.70;;;;;;4988499;28;20029;-75
2021/04/02 00:34:07;;;;;;;2.45;0.90;;;8.10;96.00;;;;;;4990773;28;20547;-75
2021/04/02 00:36:32;;;;;;;1.95;0.80;;;8.10;96.40;;;;;;4991866;28;20038;-75
2021/04/02 00:38:58;;;;;;;2.33;1.20;;;8.10;96.10;;;;;;4991763;28;20159;-74
2021/04/02 00:41:24;;;;;;;2.45;0.90;;;8.10;96.40;;;;;;4991076;28;20545;-74
2021/04/02 00:43:50;;;;;;;1.70;0.80;;;8.10;96.60;;;;;;4987533;28;20042;-74
2021/04/02 00:46:21;;;;;;;0.60;0.60;;;8.00;96.50;;;;;;4988156;28;20068;-74
2021/04/02 00:48:47;;;;;;;1.35;0.70;;;8.00;96.90;;;;;;4971945;28;20080;-74
2021/04/02 00:51:26;;;;;;;1.35;0.85;;;7.90;97.00;;;;;;4990006;28;20116;-74
2021/04/02 00:53:55;;;;;;;2.45;1.00;;;7.90;97.30;;;;;;4983759;28;20436;-74
2021/04/02 00:56:21;;;;;;;3.85;1.10;;;7.90;97.30;;;;;;4990199;28;20050;-74
2021/04/02 00:58:48;;;;;;;1.30;1.00;;;7.80;97.60;;;;;;4987501;28;20057;-74
2021/04/02 01:01:14;;;;;;;2.10;1.00;;;7.90;97.50;;;;;;4989987;28;20515;-74
2021/04/02 01:03:41;;;;;;;3.88;1.38;;;7.80;97.50;;;;;;4987209;28;20034;-74
2021/04/02 01:06:14;;;;;;;1.23;0.93;;;7.70;97.10;;;;;;4990717;28;20095;-74
2021/04/02 01:08:39;;;;;;;4.88;1.17;;;7.80;97.20;;;;;;4986276;28;20054;-74
2021/04/02 01:11:11;;;;;;;2.20;0.80;;;7.70;96.80;;;;;;4990431;28;20481;-74
2021/04/02 01:13:51;;;;;;;1.42;1.10;;;7.60;96.90;;;;;;4990316;28;20071;-74
2021/04/02 01:16:23;;;;;;;1.95;1.15;;;7.60;96.90;;;;;;4991321;28;20109;-74
2021/04/02 01:19:13;;;;;;;4.00;1.10;;;7.50;97.10;;;;;;4989777;28;20030;-75
2021/04/02 01:21:57;;;;;;;2.38;1.73;;;7.50;96.50;;;;;;4986790;28;20023;-74
2021/04/02 01:24:22;;;;;;;1.08;0.98;;;7.40;96.70;;;;;;4986863;28;20335;-75
2021/04/02 01:27:03;;;;;;;1.70;1.00;;;7.50;97.30;;;;;;4988062;28;20033;-75
2021/04/02 01:29:31;;;;;;;2.60;1.27;;;7.40;97.30;;;;;;4984168;28;20038;-74
2021/04/02 01:31:59;;;;;;;1.33;0.85;;;7.40;97.30;;;;;;4983018;28;20026;-74
2021/04/02 01:34:32;;;;;;;1.67;0.80;;;7.40;98.20;;;;;;4990103;28;20393;-74
2021/04/02 01:37:04;;;;;;;1.52;1.00;;;7.30;98.50;;;;;;4972159;28;20029;-75
2021/04/02 01:39:33;;;;;;;3.33;0.88;;;7.30;99.10;;;;;;4983549;28;20022;-74
2021/04/02 01:42:00;;;;;;;3.13;1.33;;;7.20;99.30;;;;;;4989764;28;20030;-75
2021/04/02 01:44:27;;;;;;;2.90;1.30;;;7.20;99.40;;;;;;4986942;28;20026;-75
2021/04/02 01:46:54;;;;;;;1.50;0.75;;;7.10;99.60;;;;;;4990688;28;20505;-75
2021/04/02 01:49:20;;;;;;;1.88;1.13;;;7.00;99.90;;;;;;4990565;28;20120;-75
2021/04/02 01:51:48;;;;;;;1.23;1.10;;;6.90;99.90;;;;;;4984949;28;20049;-75
2021/04/02 01:54:14;;;;;;;2.33;1.20;;;6.90;99.90;;;;;;4980045;28;20120;-75
2021/04/02 01:56:40;;;;;;;2.75;1.30;;;6.90;99.90;;;;;;4987702;28;20099;-74
2021/04/02 01:59:07;;;;;;;2.28;1.10;;;6.90;99.90;;;;;;4987398;28;21797;-74
2021/04/02 02:01:38;;;;;;;1.73;1.20;;;6.80;99.90;;;;;;4983840;28;20054;-75
2021/04/02 02:04:06;;;;;;;1.40;1.08;;;6.80;99.90;;;;;;4990574;28;20033;-75
2021/04/02 02:06:32;;;;;;;5.82;1.73;;;6.70;99.90;;;;;;4987973;28;20022;-75
2021/04/02 02:08:59;;;;;;;1.83;1.38;;;6.70;99.90;;;;;;4988677;28;20051;-75
2021/04/02 02:11:28;;;;;;;1.90;1.25;;;6.60;99.90;;;;;;4987154;28;20041;-75
2021/04/02 02:13:57;;;;;;;2.05;1.00;;;6.60;99.90;;;;;;4983930;28;20512;-74
2021/04/02 02:16:26;;;;;;;2.22;1.25;;;6.50;99.90;;;;;;4987541;28;20044;-74
2021/04/02 02:18:58;;;;;;;3.38;1.40;;;6.50;99.90;;;;;;4985585;28;20117;-73
2021/04/02 02:21:26;;;;;;;2.95;1.60;;;6.50;99.90;;;;;;4987097;28;20030;-74
2021/04/02 02:23:52;;;;;;;2.90;1.60;;;6.40;99.90;;;;;;4989455;28;20072;-74
2021/04/02 02:26:18;;;;;;;1.70;1.50;;;6.40;99.90;;;;;;4988801;28;20114;-74
2021/04/02 02:28:45;;;;;;;4.13;1.33;;;6.40;99.90;;;;;;4985486;28;20049;-73
2021/04/02 02:31:11;;;;;;;2.67;1.63;;;6.40;99.90;;;;;;4989463;28;20366;-75
2021/04/02 02:33:37;;;;;;;2.20;1.75;;;6.30;99.90;;;;;;4987791;28;20026;-73
2021/04/02 02:36:04;;;;;;;4.40;1.80;;;6.30;99.90;;;;;;4989322;28;20030;-75
2021/04/02 02:38:30;;;;;;;2.72;1.67;;;6.30;99.90;;;;;;4985402;28;20036;-74
2021/04/02 02:40:56;;;;;;;3.58;1.40;;;6.30;99.90;;;;;;4988032;28;20026;-74
2021/04/02 02:43:23;;;;;;;3.88;1.98;;;6.30;99.90;;;;;;4989479;28;20034;-74
2021/04/02 02:45:48;;;;;;;2.83;1.65;;;6.30;99.90;;;;;;4987253;28;20041;-74
2021/04/02 02:48:14;;;;;;;2.58;1.63;;;6.20;99.90;;;;;;4988395;28;20076;-74
2021/04/02 02:50:45;;;;;;;4.25;1.75;;;6.20;99.90;;;;;;4984534;28;20101;-74
2021/04/02 02:53:14;;;;;;;2.42;1.80;;;6.20;99.90;;;;;;4987071;28;20026;-74
2021/04/02 02:55:42;;;;;;;2.60;1.50;;;6.10;99.90;;;;;;4981901;28;20042;-75
2021/04/02 02:58:12;;;;;;;3.55;1.80;;;6.10;99.90;;;;;;4981409;28;20030;-75
2021/04/02 03:00:51;;;;;;;3.38;1.73;;;6.10;99.90;;;;;;4983906;28;20041;-74
2021/04/02 03:03:22;;;;;;;2.35;1.60;;;6.00;99.90;;;;;;4984413;28;20035;-75
2021/04/02 03:05:55;;;;;;;2.60;1.83;;;6.00;99.90;;;;;;4988802;28;20045;-74
2021/04/02 03:08:39;;;;;;;3.63;1.75;;;5.90;99.90;;;;;;4991525;28;20038;-74
2021/04/02 03:11:25;;;;;;;;;;;;;;;;;;;;;
2021/04/02 03:13:52;;;;;;;2.60;1.55;;;5.90;99.90;;;;;;4980503;28;20052;-74
2021/04/02 03:16:22;;;;;;;1.85;1.63;;;5.90;99.90;;;;;;4963779;28;20026;-74
2021/04/02 03:18:52;;;;;;;1.95;1.60;;;5.80;99.90;;;;;;4988163;28;20053;-74
2021/04/02 03:21:18;;;;;;;2.72;1.60;;;5.70;99.90;;;;;;4986605;28;20129;-74
2021/04/02 03:23:45;;;;;;;6.20;1.88;;;5.70;99.90;;;;;;4986629;28;20046;-74
2021/04/02 03:26:12;;;;;;;3.67;1.77;;;5.70;99.90;;;;;;4984424;28;20179;-74
2021/04/02 03:28:39;;;;;;;2.40;1.52;;;5.70;99.90;;;;;;4988494;28;20033;-74
2021/04/02 03:31:05;;;;;;;2.03;1.77;;;5.60;99.90;;;;;;4989100;28;20034;-74
2021/04/02 03:33:33;;;;;;;4.93;2.00;;;5.50;99.90;;;;;;4988532;28;20030;-74
2021/04/02 03:36:08;;;;;;;5.15;2.33;;;5.50;99.90;;;;;;4987324;28;20035;-74
2021/04/02 03:38:37;;;;;;;4.13;1.73;;;5.40;99.90;;;;;;4983251;28;20019;-75
2021/04/02 03:41:23;;;;;;;4.40;1.73;;;5.30;99.90;;;;;;4987766;28;20551;-74
2021/04/02 03:43:49;;;;;;;5.75;1.40;;;5.20;99.90;;;;;;4987559;28;20042;-74
2021/04/02 03:46:17;;;;;;;2.92;1.90;;;5.20;99.90;;;;;;4986451;28;20034;-75
2021/04/02 03:48:44;;;;;;;3.45;1.67;;;5.10;99.90;;;;;;4992901;28;20065;-75
2021/04/02 03:51:13;;;;;;;4.20;1.80;;;5.10;99.90;;;;;;4981020;28;20100;-74
2021/04/02 03:53:47;;;;;;;4.10;1.75;;;5.00;99.90;;;;;;4990203;28;20026;-74
2021/04/02 03:56:16;;;;;;;5.40;1.85;;;5.00;99.90;;;;;;4990408;28;20022;-74
2021/04/02 03:58:44;;;;;;;2.33;1.60;;;4.90;99.90;;;;;;4991743;28;20084;-74
2021/04/02 04:01:13;;;;;;;2.95;1.85;;;4.90;99.90;;;;;;4985059;28;20030;-74
2021/04/02 04:03:41;;;;;;;1.45;1.35;;;4.90;99.90;;;;;;4983415;28;20042;-75
2021/04/02 04:06:09;;;;;;;3.20;1.83;;;4.80;99.90;;;;;;4988609;28;20438;-75
2021/04/02 04:08:36;;;;;;;5.05;1.73;;;4.80;99.90;;;;;;4988134;28;20030;-74
2021/04/02 04:11:03;;;;;;;3.90;2.47;;;4.70;99.90;;;;;;4990278;28;20034;-75
2021/04/02 04:13:33;;;;;;;4.72;2.30;;;4.80;99.90;;;;;;4985445;28;20018;-74
2021/04/02 04:16:00;;;;;;;3.45;2.25;;;4.70;99.90;;;;;;4988933;28;20065;-74
2021/04/02 04:18:27;;;;;;;6.70;2.05;;;4.70;99.90;;;;;;4983981;28;20437;-75
2021/04/02 04:20:55;;;;;;;5.22;2.13;;;4.60;99.90;;;;;;4988364;28;20121;-74
2021/04/02 04:23:21;;;;;;;6.60;2.08;;;4.60;99.90;;;;;;4991286;28;20520;-75
2021/04/02 04:25:52;;;;;;;4.50;1.92;;;4.50;99.90;;;;;;4991940;28;20034;-75
2021/04/02 04:28:20;;;;;;;4.75;1.70;;;4.40;99.90;;;;;;4990228;28;20034;-74
2021/04/02 04:30:48;;;;;;;2.50;1.55;;;4.40;99.90;;;;;;4969950;28;20472;-74
2021/04/02 04:33:15;;;;;;;2.78;1.98;;;4.40;99.90;;;;;;4980260;28;20062;-74
2021/04/02 04:35:40;;;;;;;4.03;2.17;;;4.30;99.90;;;;;;4989357;28;20114;-74
2021/04/02 04:38:07;;;;;;;13.95;2.30;;;4.30;99.90;;;;;;4987097;28;20636;-74
2021/04/02 04:40:33;;;;;;;2.45;1.90;;;4.30;99.90;;;;;;4972832;28;20022;-75
2021/04/02 04:43:00;;;;;;;3.83;2.03;;;4.30;99.90;;;;;;4972350;28;20045;-74
2021/04/02 04:45:28;;;;;;;3.40;1.80;;;4.30;99.90;;;;;;4985783;28;20509;-74
2021/04/02 04:47:54;;;;;;;1.58;1.42;;;4.30;99.90;;;;;;4986754;28;20030;-74
2021/04/02 04:50:20;;;;;;;2.92;1.70;;;4.30;99.90;;;;;;4987148;28;20022;-74
2021/04/02 04:53:01;;;;;;;4.97;2.05;;;4.30;99.90;;;;;;4990148;28;20035;-75
2021/04/02 04:55:30;;;;;;;3.00;1.88;;;4.20;99.90;;;;;;4986402;28;21235;-74
2021/04/02 04:57:58;;;;;;;2.42;1.65;;;4.30;99.90;;;;;;4987938;28;20034;-75
2021/04/02 05:00:24;;;;;;;3.88;1.98;;;4.20;99.90;;;;;;4990354;28;20030;-74
2021/04/02 05:02:52;;;;;;;8.20;1.85;;;4.20;99.90;;;;;;4985808;28;20108;-74
2021/04/02 05:05:23;;;;;;;4.68;2.35;;;4.20;99.90;;;;;;4991031;28;20034;-74
2021/04/02 05:07:50;;;;;;;2.70;1.85;;;4.20;99.90;;;;;;4983628;28;20041;-75
2021/04/02 05:10:19;;;;;;;3.22;2.00;;;4.20;99.90;;;;;;4991533;28;20068;-75
2021/04/02 05:12:46;;;;;;;3.08;2.13;;;4.20;99.90;;;;;;4985027;28;20035;-75
2021/04/02 05:15:12;;;;;;;5.13;2.20;;;4.20;99.90;;;;;;4990023;28;20022;-74
2021/04/02 05:17:39;;;;;;;3.10;2.00;;;4.30;99.90;;;;;;4988026;28;20026;-75
2021/04/02 05:20:05;;;;;;;4.15;2.40;;;4.50;99.90;;;;;;4987433;28;20030;-74
2021/04/02 05:22:31;;;;;;;5.70;2.30;;;4.50;99.90;;;;;;4989226;28;20113;-74
2021/04/02 05:24:56;;;;;;;7.22;3.00;;;4.70;99.90;;;;;;4987410;28;20121;-75
2021/04/02 05:27:22;;;;;;;10.82;3.30;;;4.80;99.90;;;;;;4988117;28;20113;-74
2021/04/02 05:29:47;;;;;;;6.45;3.08;;;4.90;99.90;;;;;;4989272;28;20261;-74
2021/04/02 05:32:13;;;;;;;12.15;3.38;;;5.00;99.90;;;;;;4988660;28;20030;-74
2021/04/02 05:34:38;;;;;;;5.03;3.60;;;5.00;99.90;;;;;;4987906;28;20058;-75
2021/04/02 05:37:04;;;;;;;7.50;3.20;;;5.00;99.90;;;;;;4985758;28;20026;-74
2021/04/02 05:39:30;;;;;;;7.07;3.53;;;5.10;99.90;;;;;;4988973;28;20404;-74
2021/04/02 05:42:04;;;;;;;8.73;3.30;;;5.10;99.90;;;;;;4986667;28;20121;-75
2021/04/02 05:44:32;;;;;;;7.80;3.42;;;5.10;99.90;;;;;;4989605;28;20084;-74
2021/04/02 05:47:08;;;;;;;6.53;3.50;;;5.10;99.90;;;;;;4987442;28;20116;-74
2021/04/02 05:49:34;;;;;;;5.80;3.13;;;5.20;99.90;;;;;;4981162;28;20046;-74
2021/04/02 05:52:00;;;;;;;7.15;3.10;;;5.40;99.90;;;;;;4985475;28;20057;-74
2021/04/02 05:54:33;;;;;;;6.32;3.35;;;5.40;99.90;;;;;;4988576;28;20053;-75
2021/04/02 05:56:59;;;;;;;6.45;3.25;;;5.40;99.90;;;;;;4988006;28;20489;-74
2021/04/02 05:59:25;;;;;;;5.47;3.28;;;5.40;99.90;;;;;;4991217;28;20081;-75
2021/04/02 06:01:51;;;;;;;6.25;2.92;;;5.50;99.90;;;;;;4984415;28;20027;-75
2021/04/02 06:04:18;;;;;;;6.07;4.00;;;5.50;99.90;;;;;;4989612;28;20026;-74
2021/04/02 06:06:45;;;;;;;7.25;3.85;;;5.50;99.90;;;;;;4989253;28;20109;-75
2021/04/02 06:09:12;;;;;;;7.90;3.58;;;5.60;99.90;;;;;;4987317;28;20042;-74
2021/04/02 06:11:38;;;;;;;7.57;4.28;;;5.60;99.90;;;;;;4987126;28;20038;-75
2021/04/02 06:14:04;;;;;;;5.55;3.38;;;5.70;99.90;;;;;;4988026;28;20085;-75
2021/04/02 06:16:29;;;;;;;7.80;4.03;;;5.70;99.90;;;;;;4988546;28;20434;-74
2021/04/02 06:18:56;;;;;;;7.55;3.95;;;5.70;99.90;;;;;;4997794;28;20489;-74
2021/04/02 06:21:26;;;;;;;8.48;4.15;;;5.80;99.90;;;;;;5000574;28;20022;-75
2021/04/02 06:23:51;;;;;;;8.95;4.13;;;5.80;99.90;;;;;;4990598;28;20038;-75
2021/04/02 06:26:17;;;;;;;8.85;4.05;;;5.90;99.90;;;;;;4986100;28;20392;-75
2021/04/02 06:28:43;;;;;;;9.90;4.25;;;6.00;99.90;;;;;;4987401;28;20434;-74
2021/04/02 06:31:14;;;;;;;15.43;7.22;;;6.00;99.90;;;;;;4987445;28;20117;-74
2021/04/02 06:33:39;;;;;;;7.68;4.55;;;6.10;99.90;;;;;;4988809;28;20027;-74
2021/04/02 06:36:11;;;;;;;10.40;5.15;;;6.20;99.90;;;;;;4988592;28;20130;-75
2021/04/02 06:38:41;;;;;;;7.80;4.70;;;6.20;99.90;;;;;;4988781;28;20042;-74
2021/04/02 06:41:06;;;;;;;66.90;22.00;;;6.30;99.90;;;;;;4987601;28;20445;-75
2021/04/02 06:43:39;;;;;;;16.48;7.80;;;6.30;99.90;;;;;;4984427;28;21340;-75
2021/04/02 06:46:10;;;;;;;13.35;5.47;;;6.30;99.90;;;;;;4987841;28;20037;-75
2021/04/02 06:48:36;;;;;;;13.75;5.82;;;6.30;99.90;;;;;;4988736;28;20104;-75
2021/04/02 06:51:02;;;;;;;11.57;6.60;;;6.30;99.90;;;;;;4986967;28;20046;-75
2021/04/02 06:53:28;;;;;;;12.82;5.97;;;6.30;99.90;;;;;;4986666;28;20049;-75
2021/04/02 06:55:55;;;;;;;8.80;4.57;;;6.40;99.90;;;;;;4986054;28;20069;-75
2021/04/02 06:58:23;;;;;;;14.75;8.68;;;6.50;99.90;;;;;;4987351;28;20444;-75
2021/04/02 07:00:50;;;;;;;9.95;4.88;;;6.50;99.90;;;;;;4985101;28;20030;-75
2021/04/02 07:03:18;;;;;;;9.30;5.15;;;6.50;99.90;;;;;;4989242;28;20026;-75
2021/04/02 07:05:44;;;;;;;8.05;5.13;;;6.50;99.90;;;;;;4988303;28;20030;-75
2021/04/02 07:08:16;;;;;;;7.95;5.00;;;6.50;99.90;;;;;;4988231;28;20034;-75
2021/04/02 07:10:42;;;;;;;;;;;6.60;99.90;;;;;;4990038;28;20041;-74
2021/04/02 07:13:09;;;;;;;5.07;3.38;;;6.60;99.90;;;;;;4987138;28;19988;-74
2021/04/02 07:15:35;;;;;;;8.43;4.10;;;6.60;99.90;;;;;;4988776;28;20080;-74
2021/04/02 07:18:03;;;;;;;6.82;3.97;;;6.70;99.90;;;;;;4988155;28;20057;-75
2021/04/02 07:20:29;;;;;;;6.30;3.33;;;6.70;99.90;;;;;;4989566;28;20057;-74
2021/04/02 07:22:56;;;;;;;6.85;3.85;;;6.70;99.90;;;;;;4988598;28;20034;-74
2021/04/02 07:25:22;;;;;;;5.15;3.30;;;6.70;99.90;;;;;;4988699;28;20505;-74
2021/04/02 07:27:48;;;;;;;6.90;3.55;;;6.80;99.90;;;;;;4984742;28;20297;-74
2021/04/02 07:30:15;;;;;;;5.68;3.50;;;6.90;99.90;;;;;;4990233;28;20030;-73
2021/04/02 07:32:42;;;;;;;6.28;3.20;;;6.90;99.90;;;;;;4993900;28;20049;-74
2021/04/02 07:35:15;;;;;;;5.68;3.47;;;6.80;99.90;;;;;;4992738;28;20075;-74
2021/04/02 07:37:42;;;;;;;6.30;3.45;;;6.80;99.90;;;;;;4988905;28;20034;-75
2021/04/02 07:40:11;;;;;;;7.75;3.55;;;6.90;99.90;;;;;;4991943;28;20045;-73
2021/04/02 07:42:37;;;;;;;7.53;3.83;;;7.00;99.90;;;;;;4986682;28;20109;-72
2021/04/02 07:45:05;;;;;;;4.30;3.30;;;7.10;99.90;;;;;;4991818;28;20034;-72
2021/04/02 07:47:30;;;;;;;6.20;3.67;;;7.00;99.90;;;;;;4988158;28;20062;-73
2021/04/02 07:49:59;;;;;;;33.28;14.82;;;7.10;99.90;;;;;;4992781;28;20039;-73
2021/04/02 07:52:35;;;;;;;17.55;9.25;;;7.10;99.90;;;;;;4978645;28;20050;-74
2021/04/02 07:55:16;;;;;;;8.70;4.50;;;7.30;99.90;;;;;;4982855;28;20077;-74
2021/04/02 07:57:52;;;;;;;6.60;3.63;;;7.50;99.90;;;;;;4988116;28;20117;-75
2021/04/02 08:00:20;;;;;;;6.75;3.50;;;7.50;99.90;;;;;;4989941;28;20117;-75
2021/04/02 08:03:05;;;;;;;7.40;4.18;;;7.60;99.90;;;;;;4990252;28;20039;-74
2021/04/02 08:05:30;;;;;;;6.82;3.75;;;7.70;99.90;;;;;;4990948;28;20084;-74
2021/04/02 08:07:57;;;;;;;8.70;4.75;;;7.80;99.90;;;;;;4989243;28;20548;-74
2021/04/02 08:10:25;;;;;;;9.00;4.40;;;7.80;99.90;;;;;;4985719;28;20374;-74
2021/04/02 08:12:50;;;;;;;6.30;4.07;;;7.90;99.90;;;;;;4989092;28;20030;-75
2021/04/02 08:15:17;;;;;;;7.15;4.18;;;8.00;99.90;;;;;;4987891;28;20026;-75
2021/04/02 08:17:44;;;;;;;6.88;4.10;;;8.10;99.90;;;;;;4990242;28;20023;-74
2021/04/02 08:20:18;;;;;;;8.82;4.90;;;8.20;99.90;;;;;;4990056;28;20026;-74
2021/04/02 08:22:48;;;;;;;6.10;4.28;;;8.30;99.90;;;;;;4989503;28;20049;-74
2021/04/02 08:25:15;;;;;;;8.07;4.82;;;8.40;99.90;;;;;;4987355;28;20393;-74
2021/04/02 08:27:43;;;;;;;8.82;4.82;;;8.50;99.90;;;;;;4988417;28;20038;-73
2021/04/02 08:30:12;;;;;;;11.60;4.70;;;8.60;99.60;;;;;;4984123;28;20026;-74
2021/04/02 08:32:44;;;;;;;7.70;4.13;;;8.60;99.00;;;;;;4987510;28;20022;-76
2021/04/02 08:35:13;;;;;;;7.28;4.30;;;8.60;99.80;;;;;;4989198;28;20079;-74
2021/04/02 08:37:54;;;;;;;8.80;4.80;;;8.70;99.90;;;;;;4990975;28;20493;-77
2021/04/02 08:40:19;;;;;;;6.18;4.35;;;8.60;99.30;;;;;;4991003;28;20386;-75
2021/04/02 08:42:45;;;;;;;6.65;3.95;;;8.70;98.90;;;;;;4990837;28;20492;-78
2021/04/02 08:45:11;;;;;;;9.63;4.68;;;8.80;99.40;;;;;;4988694;28;20037;-75
2021/04/02 08:47:37;;;;;;;7.32;4.00;;;8.90;99.00;;;;;;4984202;28;20022;-75
2021/04/02 08:50:04;;;;;;;8.93;3.88;;;8.90;98.50;;;;;;4985944;28;20088;-76
2021/04/02 08:52:30;;;;;;;6.78;4.13;;;8.90;98.60;;;;;;4990752;28;20559;-76
2021/04/02 08:54:58;;;;;;;6.80;4.10;;;8.90;99.00;;;;;;4986480;28;20057;-76
2021/04/02 08:57:28;;;;;;;6.18;4.68;;;9.00;98.60;;;;;;4988450;28;20046;-74
2021/04/02 08:59:55;;;;;;;6.18;3.97;;;9.10;97.40;;;;;;4987049;28;20030;-76
2021/04/02 09:02:21;;;;;;;4.95;3.45;;;9.10;97.40;;;;;;4990851;28;20035;-76
2021/04/02 09:04:48;;;;;;;4.70;2.97;;;9.10;96.90;;;;;;4987150;28;20485;-75
2021/04/02 09:07:14;;;;;;;4.93;2.97;;;9.00;97.10;;;;;;4993357;28;20041;-81
2021/04/02 09:09:44;;;;;;;3.90;2.67;;;9.00;96.30;;;;;;4988787;28;20030;-80
2021/04/02 09:12:14;;;;;;;4.93;2.75;;;9.00;96.00;;;;;;4990244;28;20569;-77
2021/04/02 09:14:50;;;;;;;8.07;3.05;;;8.90;96.10;;;;;;4985769;28;20029;-82
2021/04/02 09:17:21;;;;;;;6.55;3.00;;;8.90;98.00;;;;;;4987047;28;20042;-77
2021/04/02 09:19:47;;;;;;;4.60;3.05;;;9.00;96.90;;;;;;4982468;28;20184;-80
2021/04/02 09:22:13;;;;;;;6.38;2.90;;;9.00;96.10;;;;;;4990098;28;20533;-81
2021/04/02 09:24:40;;;;;;;5.00;3.00;;;9.00;96.30;;;;;;4986676;28;20030;-82
2021/04/02 09:27:12;;;;;;;5.70;2.85;;;9.00;97.00;;;;;;4987511;28;20033;-80
2021/04/02 09:29:38;;;;;;;4.57;2.80;;;9.10;95.90;;;;;;4989472;28;20045;-79
2021/04/02 09:32:06;;;;;;;3.25;2.55;;;9.20;95.10;;;;;;4991409;28;20034;-79
2021/04/02 09:34:33;;;;;;;3.85;2.30;;;9.30;94.90;;;;;;4987370;28;20027;-77
2021/04/02 09:36:59;;;;;;;4.40;2.25;;;9.30;94.50;;;;;;4990053;28;20061;-78
2021/04/02 09:39:27;;;;;;;3.83;2.50;;;9.20;94.10;;;;;;4985853;28;20023;-79
2021/04/02 09:41:53;;;;;;;4.20;2.28;;;9.30;95.70;;;;;;4989007;28;20040;-76
2021/04/02 09:44:38;;;;;;;3.17;2.22;;;9.40;93.30;;;;;;4987162;28;20042;-76
2021/04/02 09:47:09;;;;;;;3.03;2.20;;;9.30;92.80;;;;;;4989479;28;20033;-78
2021/04/02 09:49:36;;;;;;;4.15;2.00;;;9.30;93.40;;;;;;4986880;28;20505;-82
2021/04/02 09:52:03;;;;;;;5.43;2.00;;;9.40;94.10;;;;;;4987479;28;20053;-77
2021/04/02 09:54:31;;;;;;;5.53;2.40;;;9.40;92.10;;;;;;4980574;28;20062;-84
2021/04/02 09:56:59;;;;;;;3.75;1.77;;;9.50;92.80;;;;;;4989523;28;20113;-83
2021/04/02 09:59:25;;;;;;;3.03;1.80;;;9.60;91.10;;;;;;4986610;28;20038;-82
2021/04/02 10:01:50;;;;;;;3.55;2.10;;;9.60;92.70;;;;;;4985675;28;20050;-78
2021/04/02 10:04:26;;;;;;;2.90;2.22;;;9.70;91.30;;;;;;4986276;28;20039;-84
2021/04/02 10:06:52;;;;;;;3.58;2.08;;;9.70;90.60;;;;;;4986960;28;20030;-78
2021/04/02 10:09:18;;;;;;;3.00;1.77;;;9.90;91.60;;;;;;4982550;28;20053;-78
2021/04/02 10:11:50;;;;;;;3.25;1.60;;;9.90;86.90;;;;;;4982047;28;20108;-77
2021/04/02 10:14:17;;;;;;;2.28;1.40;;;9.90;87.10;;;;;;4986479;28;20137;-79
2021/04/02 10:16:46;;;;;;;4.57;1.60;;;10.00;83.40;;;;;;4984548;28;20153;-78
2021/04/02 10:19:16;;;;;;;1.75;1.52;;;10.10;85.80;;;;;;4986628;28;20030;-78
2021/04/02 10:21:42;;;;;;;1.77;1.40;;;10.30;82.50;;;;;;4988148;28;20113;-79
2021/04/02 10:24:09;;;;;;;6.15;1.45;;;10.30;79.50;;;;;;4987449;28;20034;-78
2021/04/02 10:26:34;;;;;;;2.50;1.77;;;10.50;79.20;;;;;;4988408;28;20038;-78
2021/04/02 10:29:01;;;;;;;2.42;1.40;;;10.50;78.30;;;;;;4987481;28;20393;-77
2021/04/02 10:31:27;;;;;;;1.80;1.60;;;10.50;78.40;;;;;;4986990;28;20038;-77
2021/04/02 10:33:52;;;;;;;2.90;1.50;;;10.60;78.20;;;;;;4987090;28;20030;-74
2021/04/02 10:36:18;;;;;;;1.70;1.60;;;10.70;78.00;;;;;;4990788;28;20799;-77
2021/04/02 10:38:44;;;;;;;2.20;1.55;;;10.90;76.10;;;;;;4970160;28;20045;-77
2021/04/02 10:41:09;;;;;;;2.42;1.88;;;11.00;75.50;;;;;;4987832;28;20489;-76
2021/04/02 10:43:35;;;;;;;3.47;2.00;;;11.20;75.70;;;;;;4985965;28;20041;-76
2021/04/02 10:46:01;;;;;;;4.05;2.90;;;11.20;75.30;;;;;;4986014;28;20457;-73
2021/04/02 10:48:27;;;;;;;2.53;1.73;;;11.40;75.60;;;;;;4985395;28;20026;-78
2021/04/02 10:50:53;;;;;;;2.55;1.33;;;11.60;77.50;;;;;;4969725;28;20111;-79
2021/04/02 10:53:24;;;;;;;3.08;1.38;;;11.80;72.30;;;;;;4979421;28;20072;-81
2021/04/02 10:55:50;;;;;;;2.72;1.73;;;12.10;69.90;;;;;;4984998;28;20033;-80
2021/04/02 10:58:15;;;;;;;3.60;2.08;;;12.20;68.60;;;;;;4985962;28;20026;-74
2021/04/02 11:00:41;;;;;;;2.50;1.88;;;12.20;69.80;;;;;;4986201;28;20504;-74
2021/04/02 11:03:09;;;;;;;2.85;1.60;;;12.30;68.60;;;;;;4984482;28;20063;-74
2021/04/02 11:05:35;;;;;;;2.42;1.83;;;12.40;68.50;;;;;;4981860;28;20061;-79
2021/04/02 11:08:00;;;;;;;1.80;1.50;;;12.40;65.10;;;;;;4988701;28;20077;-75
2021/04/02 11:10:27;;;;;;;3.15;1.80;;;12.50;65.20;;;;;;4988269;28;20266;-76
2021/04/02 11:12:53;;;;;;;2.85;1.90;;;12.60;64.60;;;;;;4987626;28;20022;-75
2021/04/02 11:15:19;;;;;;;1.73;1.45;;;12.70;64.80;;;;;;4988851;28;20033;-76
2021/04/02 11:17:46;;;;;;;3.30;1.83;;;13.00;65.00;;;;;;4987865;28;20104;-75
2021/04/02 11:20:16;;;;;;;2.75;1.63;;;13.30;67.50;;;;;;4988054;28;20127;-73
2021/04/02 11:22:45;;;;;;;1.70;1.42;;;13.40;61.00;;;;;;4988820;28;20060;-77
2021/04/02 11:25:12;;;;;;;2.15;1.30;;;13.40;62.90;;;;;;4989211;28;20034;-78
2021/04/02 11:27:38;;;;;;;3.70;1.48;;;13.50;61.60;;;;;;4987137;28;20023;-80
2021/04/02 11:30:06;;;;;;;3.60;1.70;;;13.70;67.80;;;;;;4989453;28;20026;-79
2021/04/02 11:32:31;;;;;;;3.67;1.40;;;13.80;62.80;;;;;;4988812;28;20030;-79
2021/04/02 11:34:57;;;;;;;2.03;1.30;;;13.90;64.70;;;;;;4982859;28;20038;-79
2021/04/02 11:37:23;;;;;;;1.52;1.38;;;13.90;59.40;;;;;;4986763;28;20046;-78
2021/04/02 11:39:49;;;;;;;1.45;0.98;;;14.20;57.50;;;;;;4983798;28;20030;-82
2021/04/02 11:42:15;;;;;;;2.78;1.33;;;14.40;59.00;;;;;;4988151;28;20493;-77
2021/04/02 11:44:40;;;;;;;1.63;1.30;;;14.80;57.80;;;;;;4983429;28;20062;-79
2021/04/02 11:47:06;;;;;;;1.50;1.30;;;14.90;55.30;;;;;;4974099;28;20070;-80
2021/04/02 11:49:32;;;;;;;1.30;1.20;;;14.60;55.80;;;;;;4989326;28;20073;-80
2021/04/02 11:51:58;;;;;;;1.42;1.20;;;14.50;56.10;;;;;;4989100;28;20035;-80
2021/04/02 11:54:24;;;;;;;1.60;1.10;;;14.50;56.30;;;;;;4987092;28;20367;-80
2021/04/02 11:56:49;;;;;;;1.27;1.02;;;14.50;56.10;;;;;;4988617;28;20458;-80
2021/04/02 11:59:15;;;;;;;1.70;1.30;;;14.60;56.90;;;;;;4986658;28;20023;-80
2021/04/02 12:01:41;;;;;;;2.08;1.48;;;15.10;55.40;;;;;;4987568;28;20034;-79
2021/04/02 12:04:09;;;;;;;1.60;1.15;;;15.10;56.50;;;;;;4988179;28;20089;-79
2021/04/02 12:06:35;;;;;;;1.38;1.17;;;14.80;54.50;;;;;;4986861;28;20501;-80
2021/04/02 12:09:01;;;;;;;2.33;1.10;;;15.00;54.90;;;;;;4985243;28;20038;-80
2021/04/02 12:11:26;;;;;;;3.13;1.30;;;14.90;53.90;;;;;;4986952;28;20379;-77
2021/04/02 12:13:51;;;;;;;1.33;1.02;;;14.60;53.60;;;;;;4986965;28;20081;-78
2021/04/02 12:16:17;;;;;;;1.40;1.05;;;14.60;54.40;;;;;;4985406;28;20562;-78
2021/04/02 12:18:43;;;;;;;1.20;0.80;;;14.90;52.70;;;;;;4987668;28;20026;-78
2021/04/02 12:21:28;;;;;;;0.75;0.75;;;15.60;54.70;;;;;;4990689;28;20034;-78
2021/04/02 12:23:54;;;;;;;1.20;0.90;;;16.90;49.20;;;;;;4986467;28;20039;-77
2021/04/02 12:26:20;;;;;;;0.70;0.63;;;17.90;46.60;;;;;;4990250;28;20034;-77
2021/04/02 12:28:46;;;;;;;0.80;0.73;;;18.90;44.90;;;;;;4991891;28;20488;-76
2021/04/02 12:31:15;;;;;;;1.65;0.50;;;19.40;43.80;;;;;;4989549;28;20039;-78
2021/04/02 12:33:41;;;;;;;2.80;1.02;;;20.10;40.70;;;;;;4990667;28;20038;-78
2021/04/02 12:36:08;;;;;;;0.63;0.60;;;20.80;41.30;;;;;;4991109;28;20018;-78
2021/04/02 12:38:35;;;;;;;0.60;0.60;;;21.30;38.60;;;;;;4985762;28;20026;-80
2021/04/02 12:41:00;;;;;;;1.40;0.60;;;20.40;38.20;;;;;;4984332;28;20496;-80
2021/04/02 12:43:26;;;;;;;1.25;1.15;;;19.50;40.60;;;;;;4990236;28;20044;-79
2021/04/02 12:45:51;;;;;;;0.88;0.70;;;18.80;40.90;;;;;;4989690;28;20026;-80
2021/04/02 12:48:20;;;;;;;1.42;0.68;;;18.00;41.00;;;;;;4983909;28;20022;-81
2021/04/02 12:50:46;;;;;;;0.80;0.80;;;17.30;42.70;;;;;;4991846;28;20046;-78
2021/04/02 12:53:11;;;;;;;0.60;0.60;;;17.50;44.80;;;;;;4992311;28;20022;-78
2021/04/02 12:55:39;;;;;;;0.75;0.70;;;18.00;43.30;;;;;;4989505;28;20125;-78
2021/04/02 12:58:05;;;;;;;0.70;0.70;;;19.00;41.40;;;;;;4988760;28;20516;-80
2021/04/02 13:00:30;;;;;;;0.93;0.75;;;18.60;41.90;;;;;;4987533;28;21336;-77